CheckWX is a tool to help pilots better visualize weather data.  It is not intended as a substitute for an official pre-flight weather briefing.

04:40:04 UTC

EGYP TAF
Mount Pleasant Airport
Mount Pleasant, Falkland Islands
TAF EGYP 230133Z 2303/2321 11008KT 9999 BKN008 TEMPO 2303/2312 3000 DZ BKN003 PROB40 TEMPO 2303/2310 2000 +DZ BKN002 PROB30 TEMPO 2303/2310 0500 FG BKN001 BECMG 2312/2314 FEW020 PROB30 TEMPO 2314/2321 -SHRA SCT020

Mar-23@
03:00 UTC

Mar-23 @ 03:00 UTC

Mar-23@
12:00 UTC

Mar-23 @ 12:00 UTC

TAF EGYP 230133Z 2303/2321 11008KT 9999 BKN008
Wind
  • 110° at 8 KTS
Cloud Levels
  • Broken at 800' AGL

Mar-23@
03:00 UTC

Mar-23 @ 03:00 UTC

Mar-23@
10:00 UTC

Mar-23 @ 10:00 UTC

PROB40 TEMPO 2303/2310 2000 +DZ BKN002

Temporary - 40% Likelihood

Temporary - 40% Likelihood during this time.

Conditions
Heavy Drizzle
Cloud Levels
  • Broken at 200' AGL

Mar-23@
03:00 UTC

Mar-23 @ 03:00 UTC

Mar-23@
10:00 UTC

Mar-23 @ 10:00 UTC

PROB30 TEMPO 2303/2310 0500 FG BKN001

Temporary - 30% Likelihood

Temporary - 30% Likelihood during this time.

Conditions
Fog
Cloud Levels
  • Broken at 100' AGL

Mar-23@
03:00 UTC

Mar-23 @ 03:00 UTC

Mar-23@
12:00 UTC

Mar-23 @ 12:00 UTC

TEMPO 2303/2312 3000 DZ BKN003

Temporary

Temporary Changes expected for less than half the time period

Conditions
Drizzle
Cloud Levels
  • Broken at 300' AGL

Mar-23@
12:00 UTC

Mar-23 @ 12:00 UTC

Mar-23@
21:00 UTC

Mar-23 @ 21:00 UTC

BECMG 2312/2314 FEW020

Becoming

Becoming Conditions expected by Sat, Mar 23, 2019 @ 14:00 UTC

Wind
  • 110° at 8 KTS
Cloud Levels
  • Few at 2,000' AGL

Mar-23@
14:00 UTC

Mar-23 @ 14:00 UTC

Mar-23@
21:00 UTC

Mar-23 @ 21:00 UTC

PROB30 TEMPO 2314/2321 -SHRA SCT020

Temporary - 30% Likelihood

Temporary - 30% Likelihood during this time.

Conditions
Light Rain
Cloud Levels
  • Scattered at 2,000' AGL